Latest Weather Observations for Nhill Aerodrome

IDV60801

Issued at 10:32 pm EDT Friday 9 December 2016 (issued every 30 minutes, with the page automatically refreshed every 10 minutes)

About weather observations | Map of weather stations | Latest weather observations for VIC | Other Formats
Station Details ID: 078015 Name: NHILL AERODROME Lat: -36.31 Lon: 141.65 Height: 138.9 m
Data from the previous 72 hours. | See also: Recent months at Nhill Aerodrome
Date/Time
EDT
Temp
°C
App
Temp
°C
Dew
Point
°C
Rel
Hum
%
Delta-T
°C
Wind Press
QNH
hPa
Press
MSL
hPa
Rain since
9am
mm
Dir  Spd
km/h
Gust
km/h
Spd
kts
Gust
kts
09/10:30pm 11.3 7.5 5.6 68 2.6 SSE 15 17 8 9 1022.8 1022.4 0.0
09/10:00pm 12.4 8.2 5.6 63 3.2 SSE 17 22 9 12 1022.4 1021.9 0.0
09/09:30pm 13.4 9.2 5.6 59 3.7 S 17 22 9 12 1022.1 1021.6 0.0
09/09:00pm 14.2 9.4 5.6 56 4.1 S 20 28 11 15 1021.8 1021.3 0.0
09/08:30pm 15.6 10.8 5.5 51 4.9 S 20 30 11 16 1021.6 1021.1 0.0
09/08:00pm 16.9 11.2 4.9 45 5.7 S 24 30 13 16 1021.2 1020.7 0.0
09/07:30pm 17.9 12.9 4.5 41 6.4 S 20 28 11 15 1020.9 1020.4 0.0
09/07:00pm 19.1 13.8 4.8 39 6.9 S 22 28 12 15 1020.4 1020.0 0.0
09/06:30pm 18.9 12.8 4.7 39 6.9 S 26 35 14 19 1020.0 1019.6 0.0
09/06:00pm 18.7 12.5 4.5 39 6.8 S 26 35 14 19 1019.8 1019.4 0.0
09/05:30pm 18.8 13.4 4.6 39 6.9 SSW 22 33 12 18 1019.7 1019.3 0.0
09/05:00pm 20.0 14.6 4.5 36 7.5 SSW 22 39 12 21 1019.7 1019.3 0.0
09/04:30pm 20.1 14.9 3.8 34 7.8 SSW 20 35 11 19 1019.6 1019.2 0.0
09/04:00pm 19.9 14.3 3.6 34 7.8 SSW 22 33 12 18 1019.8 1019.4 0.0
09/03:30pm 19.2 13.2 3.4 35 7.5 SSW 24 35 13 19 1019.8 1019.4 0.0
09/03:00pm 20.0 13.5 4.5 36 7.5 S 28 37 15 20 1019.9 1019.5 0.0
09/02:30pm 18.5 13.8 3.2 36 7.2 SSW 17 32 9 17 1020.0 1019.6 0.0
09/02:00pm 18.4 12.5 3.8 38 6.9 SSW 24 32 13 17 1020.2 1019.8 0.0
09/01:30pm 18.3 12.4 4.1 39 6.8 SSW 24 37 13 20 1020.5 1020.1 0.0
09/01:00pm 16.8 10.6 4.2 43 5.9 SSW 26 35 14 19 1021.0 1020.5 0.0
09/12:30pm 16.4 10.0 3.1 41 6.1 SSW 26 35 14 19 1020.8 1020.3 0.0
09/12:00pm 16.0 9.3 3.4 43 5.8 S 28 35 15 19 1020.8 1020.3 0.0
09/11:30am 15.6 8.9 3.4 44 5.6 SSW 28 35 15 19 1020.7 1020.2 0.0
09/11:00am 15.9 8.6 2.7 41 6.0 SSW 30 41 16 22 1020.4 1020.0 0.0
09/10:30am 13.9 7.0 4.5 53 4.4 SW 30 41 16 22 1020.2 1019.8 0.0
09/10:00am 14.5 7.5 3.9 49 4.9 SSW 30 39 16 21 1019.8 1019.4 0.0
09/09:30am 13.2 7.6 5.6 60 3.6 SW 24 33 13 18 1019.8 1019.4 0.0
09/09:00am 12.7 5.9 4.9 59 3.6 SSW 30 39 16 21 1019.5 1019.1 0.2
09/08:30am 12.7 6.9 6.3 65 3.1 SW 26 35 14 19 1018.9 1018.5 0.2
09/08:00am 10.7 6.2 6.8 77 1.9 WSW 20 28 11 15 1018.4 1018.0 0.2
09/07:30am 9.8 6.0 7.4 85 1.1 W 17 20 9 11 1017.8 1017.4 0.2
09/07:00am 8.2 5.0 6.7 90 0.7 W 13 15 7 8 1017.3 1016.9 0.2
09/06:30am 7.8 4.4 5.9 88 0.9 W 13 17 7 9 1016.9 1016.5 0.2
09/06:00am 8.5 4.8 6.3 86 1.0 WSW 15 17 8 9 1016.5 1016.1 0.2
09/05:30am 8.7 5.1 6.7 87 0.9 WSW 15 19 8 10 1015.8 1015.3 0.2
09/05:00am 8.0 4.6 6.1 88 0.9 WSW 13 17 7 9 1015.3 1014.8 0.2
09/04:30am 7.9 4.5 5.9 87 0.9 WSW 13 17 7 9 1014.9 1014.4 0.2
09/04:00am 8.2 4.4 6.0 86 1.0 WSW 15 20 8 11 1014.4 1013.9 0.2
09/03:30am 8.6 4.9 6.1 84 1.2 WSW 15 19 8 10 1014.1 1013.6 0.2
09/03:00am 9.0 4.9 6.1 82 1.3 WSW 17 22 9 12 1014.1 1013.6 0.2
09/02:30am 9.9 4.9 6.3 78 1.7 SW 22 30 12 16 1014.1 1013.6 0.2
09/02:00am 9.5 5.5 6.6 82 1.4 WSW 17 22 9 12 1014.0 1013.5 0.2
09/01:30am 9.5 5.9 6.9 84 1.2 WSW 15 20 8 11 1014.1 1013.6 0.2
09/01:00am 9.9 5.4 7.0 82 1.4 SW 20 24 11 13 1013.8 1013.3 0.2
09/12:30am 10.7 5.0 6.6 76 1.9 WSW 26 35 14 19 1013.8 1013.3 0.2
09/12:00am 10.8 5.8 6.6 75 2.0 WSW 22 28 12 15 1013.6 1013.1 0.2
 
Date/Time
EDT
Temp
°C
App
Temp
°C
Dew
Point
°C
Rel
Hum
%
Delta-T
°C
Wind Press
QNH
hPa
Press
MSL
hPa
Rain since
9am
mm
Dir  Spd
km/h
Gust
km/h
Spd
kts
Gust
kts
08/11:30pm 11.4 5.1 5.5 67 2.7 SW 28 35 15 19 1013.3 1012.8 0.2
08/11:00pm 11.6 6.8 5.7 67 2.8 WSW 20 26 11 14 1013.0 1012.6 0.2
08/10:30pm 11.5 7.1 4.9 64 3.0 WSW 17 22 9 12 1012.7 1012.3 0.2
08/10:00pm 11.9 6.6 5.1 63 3.1 WSW 22 30 12 16 1012.0 1011.6 0.2
08/09:30pm 12.4 7.5 6.9 69 2.7 WSW 22 28 12 15 1011.3 1010.9 0.2
08/09:00pm 12.8 7.3 7.7 71 2.5 WSW 26 37 14 20 1010.7 1010.3 0.2
08/08:30pm 13.9 7.2 7.2 64 3.3 SW 32 46 17 25 1010.1 1009.7 0.2
08/08:00pm 14.5 7.1 6.8 60 3.8 WSW 35 50 19 27 1009.3 1008.8 0.2
08/07:31pm 15.2 6.0 6.5 56 4.3 SW 44 63 24 34 1008.7 1008.2 0.2
08/07:30pm 15.0 5.5 6.6 57 4.1 SW 46 63 25 34 1008.7 1008.2 0.2
08/07:00pm 15.6 5.1 5.8 52 4.8 SW 50 69 27 37 1007.9 1007.4 0.2
08/06:55pm 16.4 6.3 5.7 49 5.2 WSW 48 69 26 37 1007.8 1007.3 0.2
08/06:30pm 18.4 9.0 5.3 42 6.4 WSW 44 59 24 32 1006.8 1006.3 0.2
08/06:03pm 18.1 8.0 3.9 39 6.7 SW 46 69 25 37 1006.1 1005.6 0.2
08/06:00pm 17.7 8.7 4.3 41 6.4 WSW 41 57 22 31 1006.1 1005.6 0.2
08/05:30pm 17.9 7.5 6.1 46 5.8 WSW 50 69 27 37 1005.7 1005.2 0.2
08/05:00pm 19.0 9.1 4.7 39 7.0 WSW 46 65 25 35 1005.1 1004.7 0.2
08/04:35pm 19.5 9.9 4.4 37 7.3 WSW 44 69 24 37 1004.9 1004.5 0.2
08/04:30pm 18.7 8.6 5.5 42 6.5 WSW 48 65 26 35 1004.8 1004.4 0.2
08/04:00pm 18.1 9.6 8.7 54 4.9 WSW 43 61 23 33 1004.8 1004.4 0.2
08/03:52pm 18.8 10.3 6.9 46 6.0 WSW 41 59 22 32 1004.7 1004.3 0.2
08/03:41pm 18.1 8.3 6.9 48 5.6 WSW 48 59 26 32 1004.7 1004.3 0.2
08/03:30pm 16.9 6.4 7.5 54 4.7 W 52 70 28 38 1004.8 1004.4 0.2
08/03:00pm 20.1 8.5 5.7 39 7.2 WSW 56 76 30 41 1004.3 1003.9 0.2
08/02:41pm 18.7 8.5 6.9 46 6.0 WSW 50 74 27 40 1004.2 1003.8 0.2
08/02:30pm 19.2 8.2 7.0 45 6.2 WSW 54 69 29 37 1004.0 1003.6 0.2
08/02:00pm 18.9 7.4 6.1 43 6.4 W 56 74 30 40 1003.8 1003.4 0.2
08/01:46pm 19.1 8.8 8.1 49 5.7 W 52 70 28 38 1003.6 1003.1 0.2
08/01:30pm 20.3 9.7 7.0 42 6.8 WSW 52 69 28 37 1003.7 1003.3 0.2
08/01:04pm 17.7 7.7 6.3 47 5.7 W 48 67 26 36 1003.8 1003.4 0.2
08/01:00pm 17.3 7.0 6.5 49 5.4 W 50 67 27 36 1003.9 1003.5 0.2
08/12:42pm 18.1 9.2 7.8 51 5.3 W 44 65 24 35 1003.6 1003.1 0.2
08/12:30pm 18.5 9.3 8.2 51 5.3 WSW 46 57 25 31 1003.5 1003.0 0.0
08/12:00pm 18.6 8.4 6.8 46 6.0 W 50 65 27 35 1003.3 1002.8 0.0
08/11:30am 19.2 8.1 6.3 43 6.5 W 54 72 29 39 1002.7 1002.2 0.0
08/11:03am 18.5 8.6 6.4 45 6.0 W 48 69 26 37 1002.6 1002.1 0.0
08/11:00am 18.6 8.7 6.8 46 6.0 W 48 65 26 35 1002.7 1002.2 0.0
08/10:30am 17.6 8.3 7.6 52 5.1 W 46 67 25 36 1002.4 1001.9 0.0
08/10:20am 17.1 7.3 8.5 57 4.4 W 50 69 27 37 1002.3 1001.8 0.0
08/10:00am 17.4 7.3 9.1 58 4.4 W 52 67 28 36 1002.2 1001.7 0.0
08/09:42am 16.2 7.9 9.2 63 3.6 W 43 61 23 33 1002.2 1001.7 0.0
08/09:30am 15.9 7.7 9.6 66 3.3 W 43 54 23 29 1002.2 1001.7 0.0
08/09:06am 15.3 7.4 9.2 67 3.2 W 41 65 22 35 1001.9 1001.4 0.0
08/09:00am 15.1 7.8 10.1 72 2.6 W 39 54 21 29 1001.9 1001.4 -
08/08:30am 14.5 7.2 10.3 76 2.2 W 39 54 21 29 1001.8 1001.3 -
08/08:00am 14.1 7.8 10.9 81 1.7 W 35 48 19 26 1001.5 1001.0 -
08/07:30am 14.3 7.5 12.0 86 1.2 W 39 52 21 28 1000.8 1000.3 -
08/07:12am 14.4 6.8 12.3 87 1.1 W 44 63 24 34 1000.7 1000.2 -
08/07:00am 14.5 6.8 13.2 92 0.7 W 46 61 25 33 1000.5 1000.0 -
08/06:34am 17.4 12.7 15.9 91 0.9 NW 35 69 19 37 999.2 998.7 -
08/06:33am 17.8 13.9 16.5 92 0.8 NW 32 54 17 29 999.0 998.5 -
08/06:30am 18.2 14.9 16.9 92 0.8 NNW 30 43 16 23 998.5 998.0 -
08/06:00am 18.0 15.0 16.7 92 0.8 NNW 28 39 15 21 998.6 998.1 -
08/05:30am 17.8 13.6 16.3 91 0.9 NNW 33 48 18 26 998.8 998.3 -
08/05:00am 18.4 14.1 15.8 85 1.6 NNW 33 46 18 25 998.7 998.2 -
08/04:35am 18.8 14.4 15.7 82 1.8 NNW 33 54 18 29 998.7 998.2 -
08/04:30am 18.8 14.0 15.7 82 1.8 NNW 35 50 19 27 998.8 998.3 -
08/04:00am 19.6 13.9 15.3 76 2.6 NW 39 59 21 32 999.5 999.0 -
08/03:30am 22.1 16.8 13.2 57 5.1 NW 33 67 18 36 999.3 998.8 -
08/03:28am 23.2 17.8 12.2 50 6.3 NW 32 67 17 36 999.2 998.7 -
08/03:00am 25.6 20.3 8.6 34 9.3 N 26 35 14 19 997.9 997.5 0.0
08/02:30am 25.6 20.2 8.1 33 9.4 N 26 44 14 24 998.2 997.7 -
08/02:10am 26.2 20.5 8.2 32 9.7 N 28 46 15 25 998.8 998.3 -
08/02:00am 26.5 20.6 7.5 30 10.2 N 28 43 15 23 999.0 998.5 -
08/01:30am 26.6 21.1 7.6 30 10.2 N 26 41 14 22 999.3 998.8 -
08/01:00am 26.3 21.1 7.4 30 10.1 N 24 39 13 21 999.6 999.1 -
08/12:30am 26.3 21.6 7.8 31 9.9 NNE 22 35 12 19 1000.3 999.8 -
08/12:00am 26.6 21.9 7.6 30 10.3 NNE 22 37 12 20 1000.9 1000.4 -
 
Date/Time
EDT
Temp
°C
App
Temp
°C
Dew
Point
°C
Rel
Hum
%
Delta-T
°C
Wind Press
QNH
hPa
Press
MSL
hPa
Rain since
9am
mm
Dir  Spd
km/h
Gust
km/h
Spd
kts
Gust
kts
07/11:30pm 26.6 22.2 7.6 30 10.2 NNE 20 33 11 18 1001.6 1001.1 -
07/11:00pm 26.4 22.9 7.4 30 10.2 NNE 15 24 8 13 1002.5 1002.0 -
07/10:30pm 25.9 23.4 8.0 32 9.6 NNE 11 19 6 10 1003.2 1002.7 -
07/10:00pm 26.4 24.2 7.9 31 10.0 N 9 15 5 8 1004.0 1003.6 -
07/09:30pm 27.3 24.4 8.2 30 10.4 N 13 19 7 10 1004.5 1004.1 -
07/09:00pm 27.8 24.9 8.1 29 10.8 N 13 19 7 10 1005.0 1004.6 0.2
07/08:30pm 28.1 24.8 7.9 28 11.0 N 15 20 8 11 1005.2 1004.8 -
07/08:00pm 28.3 24.6 8.1 28 11.1 NNW 17 26 9 14 1005.3 1004.9 -
07/07:30pm 28.7 25.4 7.9 27 11.3 N 15 24 8 13 1005.4 1005.0 -
07/07:00pm 29.2 24.9 7.7 26 11.8 NNW 20 32 11 17 1005.5 1005.1 -
07/06:30pm 29.0 25.3 8.1 27 11.5 NNW 17 28 9 15 1006.2 1005.7 -
07/06:00pm 28.8 25.1 7.9 27 11.4 NNW 17 28 9 15 1006.8 1006.3 -
07/05:30pm 28.7 23.3 7.9 27 11.3 NW 26 41 14 22 1007.5 1007.0 -
07/05:00pm 30.1 25.4 7.9 25 12.2 NNW 22 37 12 20 1007.9 1007.4 -
07/04:30pm 29.2 25.2 8.3 27 11.5 NNW 19 30 10 16 1008.8 1008.3 -
07/04:00pm 29.0 23.9 7.6 26 11.7 NW 24 44 13 24 1009.6 1009.1 -
07/03:30pm 28.4 22.9 7.6 27 11.3 NW 26 41 14 22 1010.2 1009.8 -
07/03:00pm 27.6 22.3 6.9 27 11.1 NW 24 33 13 18 1010.8 1010.4 -
07/02:30pm 27.0 21.4 5.3 25 11.2 NW 24 37 13 20 1011.4 1011.0 0.0
07/02:07pm 27.5 20.7 3.2 21 12.1 NW 28 46 15 25 1011.6 1011.2 0.0
07/02:00pm 27.9 22.8 2.9 20 12.5 NW 19 32 10 17 1011.6 1011.2 0.0
07/01:30pm 27.0 20.7 -0.9 16 12.9 NW 22 33 12 18 1012.4 1012.0 0.0
07/01:00pm 25.3 19.5 -1.5 17 12.1 NW 19 33 10 18 1013.0 1012.6 0.0
07/12:30pm 23.5 18.1 1.2 23 10.4 NNW 19 30 10 16 1013.7 1013.2 0.0
07/12:00pm 23.8 20.1 4.2 28 9.7 N 13 26 7 14 1013.9 1013.4 0.0
07/11:30am 21.6 17.8 3.8 31 8.6 NNW 13 26 7 14 1014.4 1013.9 0.0
07/11:00am 20.4 17.3 3.6 33 8.0 NNE 9 19 5 10 1014.7 1014.2 0.0
07/10:30am 20.4 17.0 4.0 34 7.9 NNE 11 17 6 9 1015.1 1014.6 0.0
07/10:00am 19.4 15.7 4.7 38 7.1 NE 13 19 7 10 1015.3 1014.8 0.0
07/09:30am 18.4 15.0 5.9 44 6.2 E 13 20 7 11 1015.3 1014.8 0.0
07/09:00am 17.1 13.7 6.0 48 5.4 ESE 13 19 7 10 1015.2 1014.7 0.0
07/08:30am 15.2 11.5 6.5 56 4.3 E 15 20 8 11 1015.2 1014.7 0.0
07/08:00am 13.5 10.7 7.1 65 3.1 ESE 11 13 6 7 1015.2 1014.7 0.0
07/07:30am 10.9 9.1 7.0 77 1.9 SE 6 7 3 4 1014.9 1014.4 0.0
07/07:00am 9.7 7.2 6.6 81 1.5 ESE 9 11 5 6 1014.8 1014.3 0.0
07/06:30am 7.7 6.3 5.7 87 0.9 SSE 2 7 1 4 1014.9 1014.4 0.0
07/06:00am 7.2 4.1 5.5 89 0.8 SSE 11 13 6 7 1014.7 1014.2 0.0
07/05:30am 6.9 3.6 4.7 86 1.0 SSE 11 13 6 7 1014.5 1014.0 0.0
07/05:00am 7.6 4.5 5.4 86 1.0 SSE 11 13 6 7 1014.4 1013.9 0.0
07/04:30am 7.4 3.8 5.2 86 1.0 S 13 15 7 8 1014.4 1013.9 0.0
07/04:00am 8.0 4.9 5.6 85 1.1 SSE 11 15 6 8 1014.4 1013.9 0.0
07/03:30am 8.1 4.9 5.2 82 1.3 S 11 13 6 7 1014.6 1014.1 0.0
07/03:00am 8.7 5.9 5.3 79 1.5 SSW 9 11 5 6 1014.7 1014.2 0.0
07/02:30am 9.9 7.6 5.9 76 1.9 SW 7 9 4 5 1015.0 1014.5 0.0
07/02:00am 10.3 8.1 6.1 75 2.0 SSW 7 7 4 4 1015.0 1014.5 0.0
07/01:30am 10.6 8.0 6.0 73 2.1 SSW 9 11 5 6 1015.3 1014.8 0.0
07/01:00am 11.5 9.2 5.8 68 2.7 WSW 7 11 4 6 1015.5 1015.0 0.0
07/12:30am 12.2 9.6 6.0 66 2.9 W 9 11 5 6 1015.5 1015.0 0.0
07/12:00am 13.2 9.9 6.3 63 3.3 WSW 13 17 7 9 1015.7 1015.2 0.0
 
Date/Time
EDT
Temp
°C
App
Temp
°C
Dew
Point
°C
Rel
Hum
%
Delta-T
°C
Wind Press
QNH
hPa
Press
MSL
hPa
Rain since
9am
mm
Dir  Spd
km/h
Gust
km/h
Spd
kts
Gust
kts
06/11:30pm 13.6 10.2 6.0 60 3.6 W 13 17 7 9 1015.6 1015.1 0.0
06/11:00pm 14.9 11.1 5.7 54 4.4 WSW 15 19 8 10 1015.8 1015.3 0.0

Other Formats:

Comma delimited format used in spreadsheet applications
http://www.bom.gov.au/fwo/IDV60801/IDV60801.94827.axf

JavaScript Object Notation format (JSON) in row-major order
http://www.bom.gov.au/fwo/IDV60801/IDV60801.94827.json